Time;durP1;ratioP1;P1;durP2;ratioP2;P2;SDS_P1;SDS_P2;PMS_P1;PMS_P2;Temp;Humidity;BMP_temperature;BMP_pressure;BME280_temperature;BME280_humidity;BME280_pressure;Samples;Min_cycle;Max_cycle;Signal;HPM_P1;HPM_P2
2023/09/18 00:03:18;;;;;;;;;;;;;;;18.01;100;100694.8;;;;-84
2023/09/18 00:07:37;;;;;;;49.4;27.6;;;;;;;;;;;;;-87
2023/09/18 00:08:19;;;;;;;;;;;;;;;18.03;100;100687.2;;;;-84
2023/09/18 00:13:28;;;;;;;;;;;;;;;18.04;100;100668.2;;;;-84
2023/09/18 00:18:22;;;;;;;;;;;;;;;18.04;100;100658.6;;;;-85
2023/09/18 00:23:19;;;;;;;;;;;;;;;18.08;100;100640.4;;;;-84
2023/09/18 00:28:19;;;;;;;;;;;;;;;18.12;100;100641.9;;;;-84
2023/09/18 00:33:19;;;;;;;;;;;;;;;18.13;100;100631;;;;-77
2023/09/18 00:37:40;;;;;;;36.1;23.4;;;;;;;;;;;;;-83
2023/09/18 00:38:19;;;;;;;;;;;;;;;18.15;100;100619.5;;;;-84
2023/09/18 00:43:18;;;;;;;;;;;;;;;18.16;100;100621.8;;;;-84
2023/09/18 00:48:20;;;;;;;;;;;;;;;18.13;100;100614.6;;;;-83
2023/09/18 00:53:20;;;;;;;;;;;;;;;18.12;100;100602.5;;;;-85
2023/09/18 00:58:19;;;;;;;;;;;;;;;18.11;100;100586.3;;;;-86
2023/09/18 01:03:18;;;;;;;;;;;;;;;18.14;100;100566.8;;;;-84
2023/09/18 01:07:43;;;;;;;36;22.4;;;;;;;;;;;;;-84
2023/09/18 01:08:19;;;;;;;;;;;;;;;18.13;100;100549.6;;;;-83
2023/09/18 01:13:23;;;;;;;;;;;;;;;18.13;100;100536.1;;;;-83
2023/09/18 01:18:24;;;;;;;;;;;;;;;18.17;100;100521.8;;;;-85
2023/09/18 01:23:24;;;;;;;;;;;;;;;18.22;100;100502.6;;;;-84
2023/09/18 01:28:22;;;;;;;;;;;;;;;18.27;100;100503.2;;;;-84
2023/09/18 01:33:21;;;;;;;;;;;;;;;18.27;100;100488.1;;;;-83
2023/09/18 01:37:44;;;;;;;33.5;21;;;;;;;;;;;;;-84
2023/09/18 01:38:25;;;;;;;;;;;;;;;18.35;100;100500.7;;;;-84
2023/09/18 01:43:21;;;;;;;;;;;;;;;18.41;100;100480.4;;;;-84
2023/09/18 01:48:26;;;;;;;;;;;;;;;18.44;100;100484;;;;-84
2023/09/18 01:53:19;;;;;;;;;;;;;;;18.47;100;100473.5;;;;-86
2023/09/18 01:58:22;;;;;;;;;;;;;;;18.49;100;100467.9;;;;-84
2023/09/18 02:03:20;;;;;;;;;;;;;;;18.49;100;100472.4;;;;-83
2023/09/18 02:07:47;;;;;;;31.1;18.7;;;;;;;;;;;;;-84
2023/09/18 02:08:18;;;;;;;;;;;;;;;18.56;100;100465.2;;;;-84
2023/09/18 02:13:19;;;;;;;;;;;;;;;18.62;100;100466.3;;;;-83
2023/09/18 02:18:18;;;;;;;;;;;;;;;18.68;100;100467;;;;-85
2023/09/18 02:23:19;;;;;;;;;;;;;;;18.71;100;100469.9;;;;-83
2023/09/18 02:28:18;;;;;;;;;;;;;;;18.78;100;100467.7;;;;-83
2023/09/18 02:33:19;;;;;;;;;;;;;;;18.8;100;100476.5;;;;-84
2023/09/18 02:37:49;;;;;;;26.6;18;;;;;;;;;;;;;-85
2023/09/18 02:38:18;;;;;;;;;;;;;;;18.81;100;100478;;;;-85
2023/09/18 02:43:20;;;;;;;;;;;;;;;18.81;100;100462.3;;;;-84
2023/09/18 02:48:21;;;;;;;;;;;;;;;18.8;100;100459;;;;-84
2023/09/18 02:53:20;;;;;;;;;;;;;;;18.89;100;100447.5;;;;-85
2023/09/18 02:58:19;;;;;;;;;;;;;;;18.94;100;100427.6;;;;-83
2023/09/18 03:03:20;;;;;;;;;;;;;;;18.93;100;100401.5;;;;-84
2023/09/18 03:07:52;;;;;;;26.9;18.2;;;;;;;;;;;;;-83
2023/09/18 03:08:18;;;;;;;;;;;;;;;18.64;100;100354.2;;;;-85
2023/09/18 03:13:22;;;;;;;;;;;;;;;18.82;100;100382.5;;;;-83
2023/09/18 03:18:19;;;;;;;;;;;;;;;18.78;100;100361.7;;;;-84
2023/09/18 03:23:18;;;;;;;;;;;;;;;18.75;100;100352.9;;;;-86
2023/09/18 03:28:20;;;;;;;;;;;;;;;18.68;100;100327.9;;;;-86
2023/09/18 03:33:19;;;;;;;;;;;;;;;18.67;100;100333.3;;;;-85
2023/09/18 03:38:06;;;;;;;29.1;19.7;;;;;;;;;;;;;-84
2023/09/18 03:38:18;;;;;;;;;;;;;;;18.62;100;100320.3;;;;-84
2023/09/18 03:43:18;;;;;;;;;;;;;;;18.65;100;100317;;;;-83
2023/09/18 03:48:20;;;;;;;;;;;;;;;18.63;100;100312.8;;;;-85
2023/09/18 03:53:21;;;;;;;;;;;;;;;18.57;100;100308.6;;;;-84
2023/09/18 03:58:20;;;;;;;;;;;;;;;18.57;100;100298.7;;;;-86
2023/09/18 04:03:20;;;;;;;;;;;;;;;18.56;100;100321.5;;;;-85
2023/09/18 04:07:57;;;;;;;30;20.2;;;;;;;;;;;;;-84
2023/09/18 04:08:18;;;;;;;;;;;;;;;18.56;100;100305.3;;;;-82
2023/09/18 04:13:18;;;;;;;;;;;;;;;18.55;100;100286.3;;;;-84
2023/09/18 04:18:18;;;;;;;;;;;;;;;18.54;100;100283.3;;;;-84
2023/09/18 04:23:27;;;;;;;;;;;;;;;18.5;100;100293;;;;-82
2023/09/18 04:28:18;;;;;;;;;;;;;;;18.48;100;100331.2;;;;-81
2023/09/18 04:33:18;;;;;;;;;;;;;;;18.49;100;100353.1;;;;-81
2023/09/18 04:37:59;;;;;;;53.3;23.6;;;;;;;;;;;;;-81
2023/09/18 04:38:19;;;;;;;;;;;;;;;18.57;100;100330.5;;;;-82
2023/09/18 04:43:18;;;;;;;;;;;;;;;18.34;100;100317.3;;;;-83
2023/09/18 04:48:20;;;;;;;;;;;;;;;18.16;100;100310.4;;;;-82
2023/09/18 04:53:18;;;;;;;;;;;;;;;17.86;100;100314.2;;;;-83
2023/09/18 04:58:19;;;;;;;;;;;;;;;17.8;100;100307.8;;;;-82
2023/09/18 05:03:18;;;;;;;;;;;;;;;17.81;100;100296.6;;;;-83
2023/09/18 05:08:02;;;;;;;9.4;3.9;;;;;;;;;;;;;-83
2023/09/18 05:08:19;;;;;;;;;;;;;;;17.81;100;100284.7;;;;-86
2023/09/18 05:13:18;;;;;;;;;;;;;;;17.78;100;100258.5;;;;-84
2023/09/18 05:18:22;;;;;;;;;;;;;;;17.74;100;100239.8;;;;-84
2023/09/18 05:23:19;;;;;;;;;;;;;;;17.72;100;100222.3;;;;-83
2023/09/18 05:28:20;;;;;;;;;;;;;;;17.69;100;100207.1;;;;-84
2023/09/18 05:33:20;;;;;;;;;;;;;;;17.65;100;100207.2;;;;-85
2023/09/18 05:38:05;;;;;;;22;8.8;;;;;;;;;;;;;-82
2023/09/18 05:38:19;;;;;;;;;;;;;;;17.64;100;100233.7;;;;-83
2023/09/18 05:43:20;;;;;;;;;;;;;;;17.63;100;100244.3;;;;-84
2023/09/18 05:48:18;;;;;;;;;;;;;;;17.63;100;100250.2;;;;-84
2023/09/18 05:53:21;;;;;;;;;;;;;;;17.68;100;100273.3;;;;-83
2023/09/18 05:58:22;;;;;;;;;;;;;;;17.7;100;100291;;;;-84
2023/09/18 06:03:20;;;;;;;;;;;;;;;17.77;100;100284.9;;;;-84
2023/09/18 06:08:08;;;;;;;50.2;20.5;;;;;;;;;;;;;-85
2023/09/18 06:08:19;;;;;;;;;;;;;;;17.75;100;100286.7;;;;-86
2023/09/18 06:13:20;;;;;;;;;;;;;;;17.91;100;100288.3;;;;-84
2023/09/18 06:18:20;;;;;;;;;;;;;;;17.99;100;100275;;;;-85
2023/09/18 06:23:20;;;;;;;;;;;;;;;18.08;100;100289.1;;;;-82
2023/09/18 06:28:20;;;;;;;;;;;;;;;18.1;100;100277.7;;;;-86
2023/09/18 06:33:20;;;;;;;;;;;;;;;18.11;100;100272.5;;;;-85
2023/09/18 06:38:12;;;;;;;81.4;31.1;;;;;;;;;;;;;-85
2023/09/18 06:38:23;;;;;;;;;;;;;;;17.9;100;100248.1;;;;-82
2023/09/18 06:43:25;;;;;;;;;;;;;;;18.12;100;100278.5;;;;-86
2023/09/18 06:48:21;;;;;;;;;;;;;;;18.13;100;100272.7;;;;-85
2023/09/18 06:53:19;;;;;;;;;;;;;;;18.15;100;100262.2;;;;-86
2023/09/18 06:58:19;;;;;;;;;;;;;;;18.18;100;100251.5;;;;-84
2023/09/18 07:03:18;;;;;;;;;;;;;;;18.19;100;100244.6;;;;-83
2023/09/18 07:08:13;;;;;;;91.4;33.6;;;;;;;;;;;;;-84
2023/09/18 07:08:36;;;;;;;;;;;;;;;18.15;100;100234.4;;;;-85
2023/09/18 07:13:19;;;;;;;;;;;;;;;18.3;100;100249.1;;;;-86
2023/09/18 07:18:18;;;;;;;;;;;;;;;18.33;100;100227.9;;;;-85
2023/09/18 07:23:25;;;;;;;;;;;;;;;18.34;100;100222.7;;;;-85
2023/09/18 07:28:19;;;;;;;;;;;;;;;18.47;100;100222.9;;;;-85
2023/09/18 07:33:21;;;;;;;;;;;;;;;18.25;100;100176.8;;;;-84
2023/09/18 07:38:14;;;;;;;73;28.5;;;;;;;;;;;;;-85
2023/09/18 07:38:27;;;;;;;;;;;;;;;18.57;100;100216.4;;;;-86
2023/09/18 07:43:26;;;;;;;;;;;;;;;18.62;100;100230.9;;;;-85
2023/09/18 07:48:22;;;;;;;;;;;;;;;18.7;100;100240.9;;;;-84
2023/09/18 07:53:23;;;;;;;;;;;;;;;18.82;100;100246.2;;;;-86
2023/09/18 07:58:21;;;;;;;;;;;;;;;18.84;100;100253.6;;;;-85
2023/09/18 08:03:28;;;;;;;;;;;;;;;18.84;100;100266.8;;;;-86
2023/09/18 08:08:31;;;;;;;51.7;24.3;;;;;;;;;;;;;-85
2023/09/18 08:08:50;;;;;;;;;;;;;;;18.92;100;100249.2;;;;-86
2023/09/18 08:13:27;;;;;;;;;;;;;;;19.06;100;100276.5;;;;-86
2023/09/18 08:23:23;;;;;;;;;;;;;;;19.13;100;100290.1;;;;-87
2023/09/18 08:28:24;;;;;;;;;;;;;;;19.24;100;100288.2;;;;-86
2023/09/18 08:33:30;;;;;;;;;;;;;;;19.27;100;100290.2;;;;-85
2023/09/18 08:38:30;;;;;;;;;;;;;;;19.48;100;100293.3;;;;-85
2023/09/18 08:43:41;;;;;;;;;;;;;;;19.76;100;100283.3;;;;-86
2023/09/18 08:48:20;;;;;;;;;;;;;;;20.01;100;100285.9;;;;-86
2023/09/18 08:53:34;;;;;;;;;;;;;;;20.28;100;100297.3;;;;-85
2023/09/18 08:58:26;;;;;;;;;;;;;;;20.46;100;100298.9;;;;-86
2023/09/18 09:03:24;;;;;;;;;;;;;;;20.73;100;100294.6;;;;-86
2023/09/18 09:09:20;;;;;;;10.1;5.2;;;;;;;;;;;;;-84
2023/09/18 09:13:29;;;;;;;;;;;;;;;20.62;100;100306;;;;-85
2023/09/18 09:18:26;;;;;;;;;;;;;;;20.48;100;100317.9;;;;-88
2023/09/18 09:23:25;;;;;;;;;;;;;;;20.48;96.16016;100334.9;;;;-87
2023/09/18 09:28:34;;;;;;;;;;;;;;;20.96;91.6377;100336.8;;;;-87
2023/09/18 09:33:21;;;;;;;;;;;;;;;21.37;88.15723;100339.5;;;;-86
2023/09/18 09:38:33;;;;;;;;;;;;;;;21.32;87.06152;100339.7;;;;-86
2023/09/18 09:38:51;;;;;;;11.4;3.2;;;;;;;;;;;;;-86
2023/09/18 09:43:24;;;;;;;;;;;;;;;21.32;87.97852;100334.5;;;;-88
2023/09/18 09:48:27;;;;;;;;;;;;;;;21.29;87.66797;100336.3;;;;-86
2023/09/18 09:53:27;;;;;;;;;;;;;;;21.6;85.24609;100338.1;;;;-86
2023/09/18 10:03:24;;;;;;;;;;;;;;;21.28;85.37988;100345.5;;;;-86
2023/09/18 10:08:35;;;;;;;;;;;;;;;21.61;85.92773;100342;;;;-88
2023/09/18 10:08:51;;;;;;;8;3.7;;;;;;;;;;;;;-88
2023/09/18 10:13:31;;;;;;;;;;;;;;;21.75;82.92871;100337.1;;;;-85
2023/09/18 10:18:32;;;;;;;;;;;;;;;21.96;82.78516;100335.2;;;;-86
2023/09/18 10:23:27;;;;;;;;;;;;;;;22.16;82.94922;100317.3;;;;-86
2023/09/18 10:28:22;;;;;;;;;;;;;;;22.48;79.33496;100329.3;;;;-86
2023/09/18 10:33:21;;;;;;;;;;;;;;;22.31;76.38086;100333.3;;;;-85
2023/09/18 10:38:21;;;;;;;;;;;;;;;22.35;74.83105;100327.3;;;;-85
2023/09/18 10:38:38;;;;;;;10.9;4;;;;;;;;;;;;;-85
2023/09/18 10:43:25;;;;;;;;;;;;;;;22.32;76.61035;100325.7;;;;-84
2023/09/18 10:48:22;;;;;;;;;;;;;;;22.56;73.62402;100329.1;;;;-86
2023/09/18 10:53:24;;;;;;;;;;;;;;;22.52;71.54102;100328.8;;;;-85
2023/09/18 10:58:28;;;;;;;;;;;;;;;22.39;72.11523;100345;;;;-87
2023/09/18 11:03:21;;;;;;;;;;;;;;;22.45;72.90039;100340.2;;;;-87
2023/09/18 11:08:47;;;;;;;;;;;;;;;22.71;72.26855;100342;;;;-86
2023/09/18 11:09:23;;;;;;;6.5;3.6;;;;;;;;;;;;;-86
2023/09/18 11:13:33;;;;;;;;;;;;;;;22.91;70.71484;100341;;;;-87
2023/09/18 11:18:27;;;;;;;;;;;;;;;22.75;69.19434;100343.6;;;;-84
2023/09/18 11:23:36;;;;;;;;;;;;;;;22.71;68.85645;100335.9;;;;-86
2023/09/18 11:28:31;;;;;;;;;;;;;;;22.52;69.44336;100343.2;;;;-85
2023/09/18 11:33:38;;;;;;;;;;;;;;;22.46;69.05859;100344.4;;;;-86
2023/09/18 11:38:35;;;;;;;;;;;;;;;22.57;69.67969;100345.4;;;;-85
2023/09/18 12:14:49;;;;;;;;;;;;;;;23.52;63.64746;100324.7;;;;-86
2023/09/18 12:19:57;;;;;;;;;;;;;;;23.57;62.63574;100317.5;;;;-86
2023/09/18 12:24:47;;;;;;;;;;;;;;;23.26;63.60059;100320.5;;;;-86
2023/09/18 12:29:49;;;;;;;;;;;;;;;23.37;61.7832;100320.3;;;;-86
2023/09/18 12:34:58;;;;;;;;;;;;;;;23.63;62.51855;100319.9;;;;-88
2023/09/18 12:39:02;;;;;;;5.8;2.2;;;;;;;;;;;;;-87
2023/09/18 12:39:51;;;;;;;;;;;;;;;23.46;60.43262;100317.4;;;;-86
2023/09/18 12:44:50;;;;;;;;;;;;;;;23.59;60.71387;100311.9;;;;-86
2023/09/18 12:50:10;;;;;;;;;;;;;;;23.49;61.45605;100293.9;;;;-86
2023/09/18 12:54:54;;;;;;;;;;;;;;;23.88;59.80176;100286;;;;-82
2023/09/18 12:59:57;;;;;;;;;;;;;;;23.48;61.08887;100298.7;;;;-85
2023/09/18 13:04:58;;;;;;;;;;;;;;;23.22;61.99121;100281.4;;;;-83
2023/09/18 13:08:58;;;;;;;7.8;3.2;;;;;;;;;;;;;-86
2023/09/18 13:09:50;;;;;;;;;;;;;;;23.45;60.33887;100284.5;;;;-87
2023/09/18 13:19:56;;;;;;;;;;;;;;;23.51;61.13867;100268.2;;;;-84
2023/09/18 13:25:00;;;;;;;;;;;;;;;23.18;61.93066;100265.1;;;;-87
2023/09/18 13:30:06;;;;;;;;;;;;;;;23.33;60.97754;100256.9;;;;-85
2023/09/18 13:34:53;;;;;;;;;;;;;;;23.45;61.3252;100246.1;;;;-85
2023/09/18 13:39:13;;;;;;;;;;;;;;;;;;;;;
2023/09/18 13:45:11;;;;;;;;;;;;;;;23.33;61.52539;100213.9;;;;-87
2023/09/18 13:50:13;;;;;;;;;;;;;;;23.96;60.77539;100201.9;;;;-86
2023/09/18 13:55:13;;;;;;;;;;;;;;;23.79;60.51074;100186.3;;;;-84
2023/09/18 14:00:22;;;;;;;;;;;;;;;23.48;61.7998;100188;;;;-87
2023/09/18 14:05:20;;;;;;;;;;;;;;;23.73;61.71875;100173.8;;;;-86
2023/09/18 14:09:07;;;;;;;7.4;3;;;;;;;;;;;;;-85
2023/09/18 14:10:15;;;;;;;;;;;;;;;23.58;62.44336;100188;;;;-85
2023/09/18 14:15:21;;;;;;;;;;;;;;;22.94;63.37207;100193.2;;;;-87
2023/09/18 14:20:11;;;;;;;;;;;;;;;22.84;64.76465;100194.2;;;;-86
2023/09/18 14:25:19;;;;;;;;;;;;;;;22.27;65.43555;100200.8;;;;-87
2023/09/18 14:30:12;;;;;;;;;;;;;;;22.01;66.50586;100179.7;;;;-86
2023/09/18 14:35:24;;;;;;;;;;;;;;;21.89;68.5957;100170.4;;;;-86
2023/09/18 14:39:10;;;;;;;7.4;3.3;;;;;;;;;;;;;-86
2023/09/18 14:40:17;;;;;;;;;;;;;;;21.67;72.60059;100174;;;;-86
2023/09/18 14:45:31;;;;;;;;;;;;;;;21.37;74.16602;100169.4;;;;-86
2023/09/18 17:09:28;;;;;;;13.2;3.2;;;;;;;;;;;;;-80
2023/09/18 17:15:23;;;;;;;;;;;;;;;17.78;100;100146.9;;;;-80
2023/09/18 18:16:45;;;;;;;;;;;;;;;;;;;;;
2023/09/18 18:22:14;;;;;;;;;;;;;;;18;100;100179.7;;;;-78
2023/09/18 18:27:26;;;;;;;;;;;;;;;;;;;;;
2023/09/18 18:41:32;;;;;;;;;;;;;;;18.16;100;100208;;;;-78
2023/09/18 20:37:20;;;;;;;;;;;;;;;;;;;;;
2023/09/18 23:39:20;;;;;;;;;;;;;;;;;;;;;
2023/09/18 23:44:22;;;;;;;;;;;;;;;13.82;83.84863;100644.7;;;;-78
